createdAt,value
2019-03-24T00:00:01.180Z,75.20
2019-03-24T00:02:29.147Z,74.97
2019-03-24T00:04:56.904Z,63.13
2019-03-24T00:07:24.756Z,61.27
2019-03-24T00:09:52.442Z,62.47
2019-03-24T00:12:20.528Z,62.97
2019-03-24T00:14:48.262Z,65.20
2019-03-24T00:17:15.859Z,65.30
2019-03-24T00:19:43.913Z,68.30
2019-03-24T00:22:11.630Z,68.20
2019-03-24T00:24:39.327Z,67.33
2019-03-24T00:27:07.193Z,70.17
2019-03-24T00:29:34.842Z,69.50
2019-03-24T00:32:02.607Z,65.80
2019-03-24T00:34:30.341Z,67.93
2019-03-24T00:36:58.348Z,71.27
2019-03-24T00:39:26.287Z,74.70
2019-03-24T00:41:54.019Z,73.57
2019-03-24T00:44:21.790Z,77.47
2019-03-24T00:46:49.580Z,66.50
2019-03-24T00:49:17.389Z,67.70
2019-03-24T00:51:45.104Z,67.13
2019-03-24T00:54:13.225Z,67.60
2019-03-24T00:56:40.963Z,68.80
2019-03-24T00:59:08.797Z,63.83
2019-03-24T01:01:36.445Z,61.57
2019-03-24T01:04:04.362Z,79.80
2019-03-24T01:06:32.101Z,71.20
2019-03-24T01:08:59.931Z,72.73
2019-03-24T01:11:27.550Z,75.47
2019-03-24T01:14:42.240Z,74.70
2019-03-24T01:20:37.026Z,71.33
2019-03-24T01:23:04.711Z,86.40
2019-03-24T01:32:00.788Z,78.30
2019-03-24T01:34:28.497Z,83.13
2019-03-24T01:37:07.361Z,74.17
2019-03-24T01:39:35.045Z,76.23
2019-03-24T01:54:19.741Z,71.10
2019-03-24T01:56:47.447Z,73.13
2019-03-24T01:59:55.755Z,71.73
2019-03-24T02:11:37.865Z,77.23
2019-03-24T02:14:05.655Z,75.73
2019-03-24T02:17:13.935Z,79.43
2019-03-24T02:23:27.997Z,80.07
2019-03-24T02:29:28.705Z,79.03
2019-03-24T02:35:43.176Z,75.73
2019-03-24T02:41:43.686Z,76.00
2019-03-24T02:48:17.729Z,80.03
2019-03-24T02:54:05.988Z,75.63
2019-03-24T02:59:47.325Z,95.20
2019-03-24T03:02:15.447Z,82.13
2019-03-24T03:04:43.244Z,84.47
2019-03-24T03:16:38.286Z,81.33
2019-03-24T03:25:52.459Z,86.87
2019-03-24T03:28:20.211Z,96.37
2019-03-24T03:30:55.359Z,91.70
2019-03-24T03:33:34.898Z,91.70
2019-03-24T03:45:40.057Z,88.53
2019-03-24T03:48:07.745Z,82.40
2019-03-24T03:51:15.949Z,91.30
2019-03-24T03:53:44.000Z,88.93
2019-03-24T03:56:52.293Z,79.27
2019-03-24T04:06:07.126Z,84.63
2019-03-24T04:11:54.909Z,85.80
2019-03-24T04:15:03.189Z,93.33
2019-03-24T04:18:02.597Z,85.20
2019-03-24T04:27:18.223Z,87.43
2019-03-24T04:30:05.157Z,78.07
2019-03-24T04:32:33.253Z,99.27
2019-03-24T04:35:20.039Z,93.60
2019-03-24T04:38:07.402Z,92.47
2019-03-24T04:40:54.366Z,91.00
2019-03-24T04:43:41.711Z,83.83
2019-03-24T04:49:30.075Z,86.67
2019-03-24T05:04:02.939Z,85.97
2019-03-24T05:12:34.197Z,91.80
2019-03-24T05:15:13.508Z,90.23
2019-03-24T05:18:12.727Z,93.10
2019-03-24T05:24:26.817Z,95.63
2019-03-24T05:35:48.010Z,95.27
2019-03-24T05:45:03.848Z,93.90
2019-03-24T05:53:12.197Z,84.23
2019-03-24T05:55:40.356Z,91.27
2019-03-24T05:58:08.408Z,93.53
2019-03-24T06:04:16.302Z,86.17
2019-03-24T06:13:51.440Z,89.03
2019-03-24T06:16:19.128Z,84.10
2019-03-24T06:21:48.734Z,80.57
2019-03-24T06:28:03.060Z,72.80
2019-03-24T06:33:51.535Z,78.27
2019-03-24T06:36:19.308Z,82.27
2019-03-24T06:38:58.730Z,63.97
2019-03-24T06:47:57.642Z,78.37
2019-03-24T06:50:43.903Z,67.57
2019-03-24T06:53:11.666Z,66.23
2019-03-24T07:02:01.334Z,71.50
2019-03-24T07:07:09.508Z,68.47
2019-03-24T07:09:56.446Z,67.60
2019-03-24T07:12:24.199Z,65.37
2019-03-24T07:14:51.880Z,66.30
2019-03-24T07:17:19.526Z,68.90
2019-03-24T07:25:49.787Z,57.93
2019-03-24T07:28:17.963Z,60.73
2019-03-24T07:46:02.598Z,57.00
2019-03-24T07:48:31.236Z,50.97
2019-03-24T07:50:58.872Z,54.03
2019-03-24T07:54:07.156Z,56.77
2019-03-24T07:56:34.886Z,54.63
2019-03-24T07:59:02.777Z,57.00
2019-03-24T08:01:42.590Z,52.27
2019-03-24T08:07:22.996Z,48.43
2019-03-24T08:09:50.712Z,55.57
2019-03-24T08:12:37.776Z,53.43
2019-03-24T08:15:16.192Z,48.40
2019-03-24T08:17:56.557Z,51.10
2019-03-24T08:20:24.655Z,53.00
2019-03-24T08:22:52.389Z,52.03
2019-03-24T08:25:20.203Z,51.10
2019-03-24T08:27:48.037Z,47.70
2019-03-24T08:30:28.807Z,47.57
2019-03-24T08:32:56.177Z,46.00
2019-03-24T08:35:23.969Z,53.10
2019-03-24T08:37:52.266Z,53.67
2019-03-24T08:40:20.149Z,46.77
2019-03-24T08:42:47.924Z,47.03
2019-03-24T08:45:25.041Z,44.20
2019-03-24T08:47:53.077Z,44.40
2019-03-24T08:50:20.926Z,41.30
2019-03-24T08:52:48.812Z,37.87
2019-03-24T08:55:16.645Z,37.90
2019-03-24T08:57:45.053Z,34.50
2019-03-24T09:00:13.155Z,51.43
2019-03-24T09:02:41.104Z,39.50
2019-03-24T09:05:08.831Z,35.87
2019-03-24T09:07:36.682Z,41.47
2019-03-24T09:10:05.087Z,36.57
2019-03-24T09:12:32.930Z,34.33
2019-03-24T09:15:00.995Z,40.23
2019-03-24T09:17:28.856Z,36.83
2019-03-24T09:19:56.788Z,40.20
2019-03-24T09:22:24.578Z,32.87
2019-03-24T09:24:52.768Z,35.80
2019-03-24T09:27:20.960Z,38.00
2019-03-24T09:29:48.712Z,36.17
2019-03-24T09:32:16.369Z,36.63
2019-03-24T09:34:44.620Z,40.40
2019-03-24T09:37:12.438Z,39.87
2019-03-24T09:39:40.433Z,41.40
2019-03-24T09:42:08.191Z,40.30
2019-03-24T09:44:35.916Z,44.90
2019-03-24T09:47:03.655Z,43.57
2019-03-24T09:49:32.156Z,50.10
2019-03-24T09:51:59.996Z,44.07
2019-03-24T09:54:27.869Z,45.20
2019-03-24T09:56:55.671Z,42.60
2019-03-24T09:59:23.453Z,48.97
2019-03-24T10:01:51.137Z,47.83
2019-03-24T10:04:18.838Z,54.70
2019-03-24T10:06:46.607Z,49.43
2019-03-24T10:09:14.407Z,46.97
2019-03-24T10:11:42.131Z,42.90
2019-03-24T10:14:11.786Z,41.63
2019-03-24T10:16:39.481Z,44.90
2019-03-24T10:19:14.010Z,46.03
2019-03-24T10:21:36.793Z,47.70
2019-03-24T10:24:04.503Z,45.47
2019-03-24T10:26:32.724Z,45.83
2019-03-24T10:29:01.530Z,45.20
2019-03-24T10:31:29.643Z,48.23
2019-03-24T10:33:57.549Z,46.37
2019-03-24T10:36:25.538Z,46.27
2019-03-24T10:38:53.338Z,48.83
2019-03-24T10:41:21.091Z,39.83
2019-03-24T10:43:48.975Z,39.83
2019-03-24T10:46:16.807Z,40.43
2019-03-24T10:48:44.535Z,36.90
2019-03-24T10:51:12.366Z,38.77
2019-03-24T10:53:40.178Z,36.27
2019-03-24T10:56:07.924Z,39.40
2019-03-24T10:58:36.068Z,41.97
2019-03-24T11:01:04.273Z,39.67
2019-03-24T11:03:32.040Z,39.43
2019-03-24T11:05:59.731Z,45.40
2019-03-24T11:08:27.869Z,46.30
2019-03-24T11:10:55.522Z,43.23
2019-03-24T11:13:23.244Z,42.50
2019-03-24T11:15:51.348Z,45.43
2019-03-24T11:18:19.078Z,40.37
2019-03-24T11:20:46.992Z,39.97
2019-03-24T11:23:14.770Z,37.40
2019-03-24T11:25:42.463Z,43.30
2019-03-24T11:28:10.242Z,39.27
2019-03-24T11:30:38.031Z,44.70
2019-03-24T11:33:05.732Z,44.00
2019-03-24T11:35:33.470Z,44.60
2019-03-24T11:38:01.319Z,35.63
2019-03-24T11:40:29.066Z,38.00
2019-03-24T11:42:56.901Z,44.60
2019-03-24T11:45:24.923Z,41.70
2019-03-24T11:47:52.732Z,36.83
2019-03-24T11:50:20.761Z,35.80
2019-03-24T11:52:48.576Z,39.70
2019-03-24T11:55:16.449Z,37.80
2019-03-24T11:57:44.422Z,46.93
2019-03-24T12:00:13.077Z,43.33
2019-03-24T12:02:41.164Z,42.63
2019-03-24T12:05:09.371Z,44.27
2019-03-24T12:07:38.918Z,53.40
2019-03-24T12:10:08.619Z,43.80
2019-03-24T12:12:36.690Z,41.70
2019-03-24T12:15:05.592Z,43.97
2019-03-24T12:17:33.416Z,43.07
2019-03-24T12:20:01.241Z,47.97
2019-03-24T12:22:29.291Z,43.23
2019-03-24T12:24:57.069Z,42.10
2019-03-24T12:27:25.181Z,41.23
2019-03-24T12:29:52.904Z,42.70
2019-03-24T12:32:21.133Z,38.23
2019-03-24T12:34:48.868Z,48.33
2019-03-24T12:37:17.010Z,46.67
2019-03-24T12:39:44.652Z,42.30
2019-03-24T12:42:12.467Z,39.23
2019-03-24T12:44:40.694Z,42.33
2019-03-24T12:47:08.411Z,44.00
2019-03-24T12:49:36.201Z,40.00
2019-03-24T12:52:03.990Z,38.37
2019-03-24T12:54:31.782Z,40.00
2019-03-24T12:56:59.620Z,40.27
2019-03-24T12:59:27.373Z,43.30
2019-03-24T13:01:55.078Z,43.20
2019-03-24T13:04:22.813Z,40.23
2019-03-24T13:06:50.512Z,41.60
2019-03-24T13:09:18.251Z,37.23
2019-03-24T13:11:46.018Z,38.43
2019-03-24T13:14:14.090Z,44.13
2019-03-24T13:16:42.191Z,38.83
2019-03-24T13:19:10.425Z,39.43
2019-03-24T13:21:38.125Z,40.97
2019-03-24T13:24:05.890Z,40.23
2019-03-24T13:26:33.550Z,40.17
2019-03-24T13:29:01.326Z,49.00
2019-03-24T13:31:29.769Z,38.60
2019-03-24T13:33:57.530Z,39.33
2019-03-24T13:36:25.280Z,36.00
2019-03-24T13:38:53.021Z,40.50
2019-03-24T13:41:21.258Z,39.60
2019-03-24T13:43:49.167Z,36.17
2019-03-24T13:46:16.892Z,36.53
2019-03-24T13:48:44.636Z,38.03
2019-03-24T13:51:12.391Z,35.43
2019-03-24T13:53:40.126Z,34.33
2019-03-24T13:56:07.943Z,42.83
2019-03-24T13:58:35.683Z,46.50
2019-03-24T14:01:04.846Z,37.20
2019-03-24T14:03:32.634Z,36.50
2019-03-24T14:06:00.291Z,37.57
2019-03-24T14:08:27.900Z,36.13
2019-03-24T14:10:55.673Z,39.73
2019-03-24T14:13:23.398Z,31.33
2019-03-24T14:15:51.899Z,38.43
2019-03-24T14:18:20.265Z,30.63
2019-03-24T14:20:48.164Z,38.63
2019-03-24T14:23:16.336Z,39.23
2019-03-24T14:25:44.121Z,35.67
2019-03-24T14:28:12.307Z,31.43
2019-03-24T14:31:21.336Z,30.90
2019-03-24T14:36:47.116Z,39.57
2019-03-24T14:39:14.876Z,41.00
2019-03-24T14:41:42.615Z,35.70
2019-03-24T14:44:10.406Z,40.37
2019-03-24T14:46:38.116Z,35.80
2019-03-24T14:52:40.395Z,36.53
2019-03-24T14:55:08.548Z,32.30
2019-03-24T14:57:36.817Z,43.23
2019-03-24T15:00:46.243Z,37.23
2019-03-24T15:05:53.379Z,35.33
2019-03-24T15:11:31.865Z,32.30
2019-03-24T15:13:59.652Z,32.10
2019-03-24T15:16:27.805Z,38.90
2019-03-24T15:18:55.683Z,35.13
2019-03-24T15:21:23.741Z,30.10
2019-03-24T15:23:51.565Z,38.20
2019-03-24T15:26:19.557Z,31.47
2019-03-24T15:29:06.491Z,29.90
2019-03-24T15:32:06.024Z,25.73
2019-03-24T15:34:33.815Z,30.97
2019-03-24T15:37:01.819Z,30.23
2019-03-24T15:39:29.755Z,22.67
2019-03-24T15:41:57.525Z,24.80
2019-03-24T15:44:25.258Z,24.23
2019-03-24T15:47:12.232Z,24.60
2019-03-24T15:49:39.950Z,19.20
2019-03-24T15:52:07.795Z,21.10
2019-03-24T15:54:35.880Z,24.23
2019-03-24T15:57:04.004Z,22.20
2019-03-24T15:59:50.965Z,24.30
2019-03-24T16:02:18.874Z,23.60
2019-03-24T16:04:47.008Z,26.53
2019-03-24T16:07:14.800Z,28.77
2019-03-24T16:09:42.534Z,26.40
2019-03-24T16:12:10.324Z,25.70
2019-03-24T16:14:38.071Z,21.17
2019-03-24T16:17:05.831Z,21.27
2019-03-24T16:19:33.612Z,20.30
2019-03-24T16:22:01.678Z,21.07
2019-03-24T16:24:30.176Z,20.33
2019-03-24T16:27:09.705Z,18.40
2019-03-24T16:29:37.334Z,21.03
2019-03-24T16:35:51.100Z,18.03
2019-03-24T16:40:57.727Z,21.93
2019-03-24T16:43:37.381Z,21.87
2019-03-24T16:46:05.174Z,26.80
2019-03-24T16:48:37.054Z,24.47
2019-03-24T16:51:09.358Z,21.67
2019-03-24T16:53:37.103Z,21.60
2019-03-24T16:56:04.856Z,21.23
2019-03-24T16:58:32.652Z,23.13
2019-03-24T17:01:00.401Z,21.80
2019-03-24T17:03:28.130Z,21.13
2019-03-24T17:06:15.007Z,22.10
2019-03-24T17:08:42.779Z,23.30
2019-03-24T17:11:11.642Z,24.67
2019-03-24T17:13:39.420Z,23.47
2019-03-24T17:16:47.650Z,20.63
2019-03-24T17:19:15.407Z,21.83
2019-03-24T17:21:49.904Z,22.17
2019-03-24T17:24:23.190Z,24.43
2019-03-24T17:27:10.025Z,25.80
2019-03-24T17:29:37.824Z,22.27
2019-03-24T17:32:24.638Z,22.30
2019-03-24T17:38:07.540Z,24.23
2019-03-24T17:40:38.706Z,22.80
2019-03-24T17:43:15.282Z,24.53
2019-03-24T17:49:17.546Z,23.23
2019-03-24T17:51:45.282Z,24.03
2019-03-24T17:54:13.020Z,23.73
2019-03-24T17:56:40.819Z,39.00
2019-03-24T17:59:08.894Z,23.97
2019-03-24T18:01:36.629Z,34.47
2019-03-24T18:04:04.841Z,28.07
2019-03-24T18:06:32.603Z,22.50
2019-03-24T18:09:00.345Z,25.37
2019-03-24T18:11:28.121Z,26.17
2019-03-24T18:13:55.881Z,25.23
2019-03-24T18:16:24.273Z,23.40
2019-03-24T18:18:51.923Z,23.10
2019-03-24T18:21:38.931Z,22.63
2019-03-24T18:30:00.871Z,22.40
2019-03-24T18:32:28.643Z,24.10
2019-03-24T18:34:57.165Z,28.60
2019-03-24T18:37:24.869Z,22.57
2019-03-24T18:39:52.571Z,29.80
2019-03-24T18:42:20.716Z,25.57
2019-03-24T18:44:48.372Z,25.47
2019-03-24T18:47:17.995Z,23.77
2019-03-24T18:49:46.200Z,25.30
2019-03-24T18:52:22.268Z,25.97
2019-03-24T18:58:05.438Z,21.43
2019-03-24T19:00:33.179Z,25.37
2019-03-24T19:03:00.951Z,29.50
2019-03-24T19:05:28.853Z,20.53
2019-03-24T19:07:56.593Z,21.13
2019-03-24T19:10:24.369Z,18.00
2019-03-24T19:19:09.121Z,19.77
2019-03-24T19:21:36.852Z,19.10
2019-03-24T19:24:04.625Z,16.13
2019-03-24T19:26:32.366Z,18.03
2019-03-24T19:29:19.668Z,16.43
2019-03-24T19:34:49.913Z,13.60
2019-03-24T19:37:36.830Z,17.83
2019-03-24T19:45:50.057Z,17.60
2019-03-24T19:48:17.990Z,22.17
2019-03-24T19:50:45.644Z,10.40
2019-03-24T19:53:13.839Z,10.73
2019-03-24T19:58:55.963Z,11.60
2019-03-24T20:01:23.932Z,12.03
2019-03-24T20:03:51.713Z,12.00
2019-03-24T20:06:19.538Z,15.60
2019-03-24T20:08:47.184Z,14.70
2019-03-24T20:11:34.482Z,17.67
2019-03-24T20:14:02.218Z,12.50
2019-03-24T20:16:30.038Z,14.80
2019-03-24T20:19:17.021Z,12.37
2019-03-24T20:21:56.799Z,13.83
2019-03-24T20:24:24.586Z,10.87
2019-03-24T20:26:52.365Z,18.80
2019-03-24T20:32:01.056Z,16.73
2019-03-24T20:40:43.227Z,11.83
2019-03-24T20:43:11.084Z,11.87
2019-03-24T20:45:57.883Z,10.00
2019-03-24T20:48:38.033Z,18.57
2019-03-24T20:51:18.007Z,9.60
2019-03-24T20:53:45.789Z,11.27
2019-03-24T20:56:13.539Z,11.87
2019-03-24T20:58:41.491Z,9.77
2019-03-24T21:01:09.247Z,10.40
2019-03-24T21:03:37.348Z,13.20
2019-03-24T21:06:05.005Z,10.90
2019-03-24T21:08:32.768Z,9.80
2019-03-24T21:14:00.230Z,14.90
2019-03-24T21:16:28.088Z,9.00
2019-03-24T21:18:55.845Z,13.77
2019-03-24T21:21:42.697Z,7.10
2019-03-24T21:24:29.641Z,9.50
2019-03-24T21:26:57.384Z,9.90
2019-03-24T21:29:25.145Z,12.50
2019-03-24T21:31:55.144Z,12.83
2019-03-24T21:34:51.278Z,14.97
2019-03-24T21:37:18.927Z,17.17
2019-03-24T21:40:18.237Z,8.57
2019-03-24T21:42:45.935Z,14.00
2019-03-24T21:45:54.292Z,12.70
2019-03-24T21:48:41.197Z,19.87
2019-03-24T21:51:08.871Z,21.50
2019-03-24T21:53:40.922Z,12.17
2019-03-24T21:56:16.037Z,10.50
2019-03-24T21:58:43.779Z,10.60
2019-03-24T22:01:11.878Z,11.73
2019-03-24T22:03:58.822Z,13.50
2019-03-24T22:06:26.515Z,12.40
2019-03-24T22:09:12.573Z,9.53
2019-03-24T22:11:40.312Z,15.27
2019-03-24T22:14:08.282Z,15.00
2019-03-24T22:16:36.337Z,8.57
2019-03-24T22:19:04.101Z,16.23
2019-03-24T22:21:32.212Z,10.27
2019-03-24T22:23:59.978Z,12.77
2019-03-24T22:26:28.036Z,12.17
2019-03-24T22:28:56.119Z,11.63
2019-03-24T22:34:25.457Z,16.23
2019-03-24T22:36:53.214Z,16.33
2019-03-24T22:39:20.962Z,7.43
2019-03-24T22:41:48.723Z,7.20
2019-03-24T22:44:35.658Z,11.37
2019-03-24T22:47:03.429Z,11.47
2019-03-24T22:49:50.299Z,11.63
2019-03-24T22:52:18.020Z,9.83
2019-03-24T23:04:02.389Z,13.13
2019-03-24T23:06:30.115Z,11.10
2019-03-24T23:09:17.387Z,13.53
2019-03-24T23:12:04.447Z,17.00
2019-03-24T23:18:14.911Z,8.23
2019-03-24T23:24:16.977Z,8.17
2019-03-24T23:26:46.594Z,14.30
2019-03-24T23:29:14.395Z,10.90
2019-03-24T23:32:01.261Z,12.73
2019-03-24T23:34:28.958Z,8.80
2019-03-24T23:37:15.915Z,13.60
2019-03-24T23:45:24.354Z,16.77
2019-03-24T23:47:52.052Z,16.90
2019-03-24T23:50:19.788Z,8.83
2019-03-24T23:52:47.424Z,12.87
2019-03-24T23:55:15.152Z,13.13
2019-03-24T23:57:42.745Z,18.67
